Grobnicko Polje Airport


Codes: LDRG/
Name: Grobnicko Polje Airport
City: Grobnicko
Country: Croatia
Elevation: 951 ft.

Photos at Grobnicko Polje Airport


   Photos courtesy of SpottingLog. You can add your own sightings and photos by signing up for a free trial today.



No photos found.

Weather at Grobnicko Polje Airport


Time (UTC)DescriptionTempratureWindCloud coverageVisibilityPressureHumidity
19-Apr-2024 06:00Scattered Clouds6°C7 mph, NE43%10000m1014hPa65%
19-Apr-2024 09:00Scattered Clouds9°C4 mph, NE26%10000m1015hPa48%
19-Apr-2024 12:00Few Clouds13°C7 mph, SW22%10000m1014hPa37%
19-Apr-2024 15:00Broken Clouds11°C7 mph, SW63%10000m1013hPa47%
19-Apr-2024 18:00Scattered Clouds8°C2 mph, W40%10000m1012hPa71%
19-Apr-2024 21:00Scattered Clouds6°C2 mph, E42%10000m1011hPa73%
20-Apr-2024 00:00Broken Clouds6°C2 mph, E71%10000m1009hPa76%
20-Apr-2024 03:00Overcast Clouds6°C4 mph, NE100%10000m1009hPa73%
20-Apr-2024 06:00Overcast Clouds8°C4 mph, NE98%10000m1009hPa63%
20-Apr-2024 09:00Light Rain6°C7 mph, NE100%6436m1011hPa89%
20-Apr-2024 12:00Light Rain8°C16 mph, NE100%10000m1010hPa76%
20-Apr-2024 15:00Light Rain6°C11 mph, NE100%5228m1012hPa86%
20-Apr-2024 18:00Light Rain5°C13 mph, NE100%3466m1013hPa88%
20-Apr-2024 21:00Light Rain6°C13 mph, NE100%10000m1013hPa76%
21-Apr-2024 00:00Overcast Clouds6°C18 mph, NE100%10000m1012hPa68%
21-Apr-2024 03:00Overcast Clouds5°C18 mph, NE100%10000m1012hPa64%
21-Apr-2024 06:00Overcast Clouds5°C16 mph, NE100%10000m1013hPa61%
21-Apr-2024 09:00Overcast Clouds8°C16 mph, NE100%10000m1014hPa55%
21-Apr-2024 12:00Overcast Clouds9°C13 mph, NE100%10000m1014hPa55%
21-Apr-2024 15:00Overcast Clouds8°C13 mph, NE100%10000m1015hPa65%
21-Apr-2024 18:00Overcast Clouds6°C9 mph, NE100%10000m1016hPa73%
21-Apr-2024 21:00Overcast Clouds6°C11 mph, NE100%10000m1017hPa59%
22-Apr-2024 00:00Overcast Clouds5°C7 mph, NE100%10000m1019hPa64%
22-Apr-2024 03:00Overcast Clouds4°C7 mph, NE100%10000m1019hPa72%
22-Apr-2024 06:00Overcast Clouds5°C4 mph, NE100%10000m1019hPa65%
22-Apr-2024 09:00Overcast Clouds8°C7 mph, NE100%10000m1019hPa56%
22-Apr-2024 12:00Overcast Clouds9°C9 mph, E100%10000m1019hPa56%
22-Apr-2024 15:00Broken Clouds9°C7 mph, NE79%10000m1019hPa57%
22-Apr-2024 18:00Scattered Clouds4°C7 mph, NE50%10000m1020hPa79%
22-Apr-2024 21:00Clear Sky3°C9 mph, NE7%10000m1020hPa85%
23-Apr-2024 00:00Scattered Clouds3°C9 mph, NE46%10000m1019hPa85%
23-Apr-2024 03:00Overcast Clouds2°C9 mph, NE98%10000m1017hPa85%
23-Apr-2024 06:00Overcast Clouds5°C11 mph, NE99%10000m1014hPa70%
23-Apr-2024 09:00Overcast Clouds7°C11 mph, NE100%10000m1013hPa62%
23-Apr-2024 12:00Overcast Clouds8°C13 mph, NE100%10000m1011hPa63%
23-Apr-2024 15:00Overcast Clouds7°C13 mph, NE100%8933m1008hPa76%
23-Apr-2024 18:00Overcast Clouds6°C11 mph, NE100%5171m1007hPa84%
23-Apr-2024 21:00Overcast Clouds6°C9 mph, NE100%5093m1007hPa84%
24-Apr-2024 00:00Overcast Clouds6°C4 mph, NE100%4867m1006hPa87%
24-Apr-2024 03:00Light Rain5°C4 mph, NE100%1268m1006hPa92%